createdAt,value
2023-09-23T00:00:32.888Z,2.13
2023-09-23T00:03:01.806Z,4.78
2023-09-23T00:05:29.218Z,3.60
2023-09-23T00:07:56.603Z,4.30
2023-09-23T00:10:23.884Z,3.22
2023-09-23T00:12:51.207Z,3.47
2023-09-23T00:15:18.521Z,3.97
2023-09-23T00:17:46.011Z,4.05
2023-09-23T00:20:14.999Z,3.17
2023-09-23T00:22:42.323Z,2.45
2023-09-23T00:25:09.844Z,2.35
2023-09-23T00:27:37.085Z,4.78
2023-09-23T00:30:05.643Z,1.45
2023-09-23T00:32:32.898Z,2.10
2023-09-23T00:35:00.289Z,1.35
2023-09-23T00:37:28.966Z,1.85
2023-09-23T00:39:56.212Z,1.08
2023-09-23T00:42:23.524Z,2.53
2023-09-23T00:44:50.969Z,2.10
2023-09-23T00:47:19.287Z,2.42
2023-09-23T00:49:47.339Z,2.63
2023-09-23T00:52:15.826Z,3.92
2023-09-23T00:54:44.584Z,2.25
2023-09-23T00:57:12.124Z,5.03
2023-09-23T00:59:39.414Z,1.95
2023-09-23T01:02:07.543Z,1.52
2023-09-23T01:04:35.213Z,1.20
2023-09-23T01:07:02.533Z,1.88
2023-09-23T01:09:29.917Z,1.42
2023-09-23T01:11:58.683Z,1.90
2023-09-23T01:14:25.949Z,1.98
2023-09-23T01:16:53.796Z,4.53
2023-09-23T01:19:21.435Z,1.90
2023-09-23T01:21:48.797Z,5.30
2023-09-23T01:24:18.624Z,2.55
2023-09-23T01:26:48.498Z,1.60
2023-09-23T01:29:15.878Z,2.95
2023-09-23T01:31:44.976Z,1.80
2023-09-23T01:34:12.286Z,2.97
2023-09-23T01:36:39.519Z,1.70
2023-09-23T01:39:08.702Z,1.05
2023-09-23T01:41:37.407Z,2.33
2023-09-23T01:44:05.069Z,3.63
2023-09-23T01:46:32.361Z,5.97
2023-09-23T01:48:59.936Z,3.90
2023-09-23T01:51:27.182Z,1.67
2023-09-23T01:53:54.405Z,2.55
2023-09-23T01:56:21.722Z,2.15
2023-09-23T01:58:50.755Z,1.90
2023-09-23T02:01:18.107Z,2.75
2023-09-23T02:03:46.545Z,2.22
2023-09-23T02:06:14.237Z,4.00
2023-09-23T02:08:41.541Z,2.40
2023-09-23T02:11:08.937Z,2.42
2023-09-23T02:13:36.268Z,2.97
2023-09-23T02:16:05.139Z,2.63
2023-09-23T02:18:32.401Z,2.35
2023-09-23T02:20:59.647Z,3.35
2023-09-23T02:23:26.901Z,1.27
2023-09-23T02:25:54.239Z,3.78
2023-09-23T02:28:21.529Z,2.45
2023-09-23T02:30:48.848Z,2.75
2023-09-23T02:33:17.501Z,2.55
2023-09-23T02:35:44.827Z,2.78
2023-09-23T02:38:12.145Z,3.15
2023-09-23T02:40:41.615Z,3.65
2023-09-23T02:43:08.938Z,2.58
2023-09-23T02:45:37.257Z,3.72
2023-09-23T02:48:05.199Z,2.58
2023-09-23T02:50:33.828Z,2.60
2023-09-23T02:53:01.197Z,1.05
2023-09-23T02:55:28.480Z,2.05
2023-09-23T02:57:55.757Z,1.70
2023-09-23T03:00:23.125Z,1.63
2023-09-23T03:02:54.391Z,3.90
2023-09-23T03:05:22.841Z,2.17
2023-09-23T03:07:51.602Z,1.40
2023-09-23T03:10:19.128Z,4.28
2023-09-23T03:12:47.300Z,2.15
2023-09-23T03:15:14.734Z,1.10
2023-09-23T03:17:42.671Z,1.95
2023-09-23T03:20:11.026Z,2.72
2023-09-23T03:22:38.274Z,1.60
2023-09-23T03:25:07.929Z,1.83
2023-09-23T03:27:35.539Z,2.38
2023-09-23T03:30:04.762Z,3.40
2023-09-23T03:32:33.176Z,2.38
2023-09-23T03:35:00.584Z,1.83
2023-09-23T03:37:29.734Z,1.75
2023-09-23T03:39:57.047Z,2.88
2023-09-23T03:42:25.664Z,2.28
2023-09-23T03:44:52.926Z,3.83
2023-09-23T03:47:20.229Z,5.55
2023-09-23T03:49:47.503Z,2.65
2023-09-23T03:52:14.796Z,1.38
2023-09-23T03:54:42.033Z,1.10
2023-09-23T03:57:09.302Z,3.17
2023-09-23T03:59:37.956Z,2.83
2023-09-23T04:02:05.400Z,2.85
2023-09-23T04:04:32.795Z,3.70
2023-09-23T04:07:00.048Z,3.08
2023-09-23T04:09:27.278Z,4.28
2023-09-23T04:11:54.538Z,3.70
2023-09-23T04:14:21.938Z,2.30
2023-09-23T04:16:50.589Z,2.85
2023-09-23T04:19:17.864Z,1.90
2023-09-23T04:21:45.179Z,2.00
2023-09-23T04:24:12.380Z,5.25
2023-09-23T04:26:39.643Z,10.68
2023-09-23T04:29:06.949Z,2.20
2023-09-23T04:31:34.191Z,2.33
2023-09-23T04:34:02.807Z,2.85
2023-09-23T04:36:30.067Z,2.75
2023-09-23T04:38:57.322Z,1.50
2023-09-23T04:41:24.598Z,2.85
2023-09-23T04:43:51.900Z,2.78
2023-09-23T04:46:19.230Z,1.98
2023-09-23T04:48:46.691Z,2.30
2023-09-23T04:51:15.543Z,2.67
2023-09-23T04:53:42.780Z,2.60
2023-09-23T04:56:10.065Z,2.80
2023-09-23T04:58:37.335Z,4.53
2023-09-23T05:01:04.641Z,5.93
2023-09-23T05:03:31.877Z,1.85
2023-09-23T05:05:59.154Z,1.95
2023-09-23T05:08:27.893Z,2.65
2023-09-23T05:10:55.210Z,4.38
2023-09-23T05:13:22.505Z,8.20
2023-09-23T05:15:49.800Z,5.28
2023-09-23T05:18:17.084Z,4.57
2023-09-23T05:20:44.374Z,5.53
2023-09-23T05:23:11.651Z,6.00
2023-09-23T05:25:40.404Z,4.93
2023-09-23T05:28:10.132Z,2.65
2023-09-23T05:30:38.318Z,4.78
2023-09-23T05:33:05.941Z,2.90
2023-09-23T05:35:33.285Z,2.60
2023-09-23T05:38:00.643Z,5.13
2023-09-23T05:40:28.008Z,4.28
2023-09-23T05:42:56.922Z,4.20
2023-09-23T05:45:24.165Z,3.30
2023-09-23T05:47:51.891Z,9.10
2023-09-23T05:50:19.301Z,6.00
2023-09-23T05:52:47.195Z,7.47
2023-09-23T05:55:14.825Z,4.28
2023-09-23T05:57:42.350Z,8.70
2023-09-23T06:00:12.723Z,3.05
2023-09-23T06:02:40.045Z,3.53
2023-09-23T06:05:08.055Z,5.20
2023-09-23T06:07:35.401Z,2.97
2023-09-23T06:10:02.750Z,4.65
2023-09-23T06:12:31.306Z,5.50
2023-09-23T06:14:59.248Z,5.38
2023-09-23T06:17:29.716Z,5.97
2023-09-23T06:19:58.050Z,5.22
2023-09-23T06:22:25.850Z,6.10
2023-09-23T06:24:53.612Z,2.65
2023-09-23T06:27:20.999Z,2.90
2023-09-23T06:29:48.307Z,3.65
2023-09-23T06:32:15.560Z,6.18
2023-09-23T06:34:44.240Z,5.22
2023-09-23T06:37:11.466Z,5.45
2023-09-23T06:39:38.786Z,4.78
2023-09-23T06:42:06.020Z,4.43
2023-09-23T06:44:33.283Z,2.55
2023-09-23T06:47:03.247Z,3.88
2023-09-23T06:49:31.100Z,4.57
2023-09-23T06:52:00.239Z,4.40
2023-09-23T06:54:27.607Z,4.28
2023-09-23T06:56:55.913Z,3.80
2023-09-23T06:59:23.562Z,3.08
2023-09-23T07:01:51.936Z,3.83
2023-09-23T07:04:20.207Z,3.42
2023-09-23T07:06:48.203Z,4.05
2023-09-23T07:09:17.619Z,3.67
2023-09-23T07:11:45.900Z,5.60
2023-09-23T07:14:14.026Z,4.20
2023-09-23T07:16:41.672Z,6.88
2023-09-23T07:19:09.502Z,8.80
2023-09-23T07:21:37.048Z,4.97
2023-09-23T07:24:07.729Z,3.95
2023-09-23T07:26:39.520Z,3.25
2023-09-23T07:29:07.600Z,3.58
2023-09-23T07:31:35.411Z,4.85
2023-09-23T07:34:03.443Z,4.32
2023-09-23T07:36:31.291Z,5.40
2023-09-23T07:38:58.518Z,4.10
2023-09-23T07:41:25.825Z,4.78
2023-09-23T07:43:54.485Z,4.65
2023-09-23T07:46:21.864Z,5.13
2023-09-23T07:48:49.210Z,5.93
2023-09-23T07:51:16.544Z,3.22
2023-09-23T07:53:43.803Z,5.57
2023-09-23T07:56:11.073Z,8.02
2023-09-23T07:58:38.349Z,3.75
2023-09-23T08:01:06.984Z,3.33
2023-09-23T08:03:34.271Z,4.90
2023-09-23T08:06:01.614Z,4.15
2023-09-23T08:08:29.138Z,2.53
2023-09-23T08:10:56.500Z,3.03
2023-09-23T08:13:24.157Z,2.22
2023-09-23T08:15:58.015Z,6.68
2023-09-23T08:18:26.760Z,3.70
2023-09-23T08:20:56.675Z,2.70
2023-09-23T08:23:24.184Z,5.25
2023-09-23T08:25:51.502Z,7.32
2023-09-23T08:28:18.824Z,2.63
2023-09-23T08:30:46.081Z,3.92
2023-09-23T08:33:13.793Z,3.60
2023-09-23T08:35:42.792Z,3.95
2023-09-23T08:38:10.183Z,3.17
2023-09-23T08:40:39.738Z,3.75
2023-09-23T08:43:07.621Z,6.03
2023-09-23T08:45:41.631Z,3.45
2023-09-23T08:48:09.121Z,4.25
2023-09-23T08:50:37.866Z,3.53
2023-09-23T08:53:07.746Z,2.95
2023-09-23T08:55:35.782Z,5.10
2023-09-23T08:58:03.116Z,4.70
2023-09-23T09:00:31.333Z,3.15
2023-09-23T09:02:58.641Z,5.95
2023-09-23T09:05:35.145Z,3.53
2023-09-23T09:08:02.542Z,6.57
2023-09-23T09:10:31.213Z,5.75
2023-09-23T09:13:01.747Z,3.63
2023-09-23T09:15:29.173Z,7.22
2023-09-23T09:17:58.249Z,3.92
2023-09-23T09:20:25.610Z,3.03
2023-09-23T09:22:53.059Z,3.55
2023-09-23T09:25:20.337Z,3.03
2023-09-23T09:27:49.240Z,2.92
2023-09-23T09:30:16.542Z,3.95
2023-09-23T09:32:45.237Z,5.25
2023-09-23T09:35:14.490Z,4.30
2023-09-23T09:37:44.491Z,3.47
2023-09-23T09:40:16.020Z,6.05
2023-09-23T09:42:49.249Z,4.82
2023-09-23T09:45:18.721Z,3.55
2023-09-23T09:47:46.605Z,5.38
2023-09-23T09:50:15.115Z,6.85
2023-09-23T09:52:42.694Z,3.40
2023-09-23T09:55:11.250Z,5.55
2023-09-23T09:57:39.704Z,3.58
2023-09-23T10:00:08.317Z,2.58
2023-09-23T10:02:40.731Z,3.92
2023-09-23T10:05:08.574Z,4.93
2023-09-23T10:07:54.806Z,2.95
2023-09-23T10:10:30.806Z,3.20
2023-09-23T10:12:58.433Z,3.60
2023-09-23T10:15:27.469Z,1.95
2023-09-23T10:17:56.274Z,10.45
2023-09-23T10:20:32.997Z,3.15
2023-09-23T10:23:00.336Z,4.45
2023-09-23T10:25:37.678Z,1.90
2023-09-23T10:28:05.724Z,4.80
2023-09-23T10:30:33.436Z,3.83
2023-09-23T10:33:02.633Z,4.63
2023-09-23T10:35:30.125Z,3.42
2023-09-23T10:37:57.560Z,2.60
2023-09-23T10:40:25.127Z,4.72
2023-09-23T10:42:52.512Z,2.83
2023-09-23T10:45:19.824Z,3.42
2023-09-23T10:47:47.342Z,2.88
2023-09-23T10:50:16.125Z,4.55
2023-09-23T10:52:43.554Z,5.68
2023-09-23T10:55:11.266Z,1.42
2023-09-23T10:57:38.644Z,6.13
2023-09-23T11:00:09.069Z,6.15
2023-09-23T11:02:36.393Z,12.68
2023-09-23T11:05:04.282Z,9.95
2023-09-23T11:07:33.602Z,2.63
2023-09-23T11:10:00.891Z,5.05
2023-09-23T11:12:32.744Z,4.22
2023-09-23T11:15:00.070Z,3.88
2023-09-23T11:17:28.980Z,5.15
2023-09-23T11:19:57.255Z,3.90
2023-09-23T11:22:25.471Z,3.05
2023-09-23T11:24:54.743Z,3.08
2023-09-23T11:27:22.062Z,1.75
2023-09-23T11:29:50.020Z,2.83
2023-09-23T11:32:20.729Z,3.30
2023-09-23T11:34:48.109Z,3.70
2023-09-23T11:37:15.422Z,2.90
2023-09-23T11:39:42.668Z,2.45
2023-09-23T11:42:11.357Z,3.15
2023-09-23T11:44:38.715Z,3.85
2023-09-23T11:47:06.061Z,3.60
2023-09-23T11:49:33.544Z,3.58
2023-09-23T11:52:00.805Z,2.53
2023-09-23T11:54:28.211Z,5.63
2023-09-23T11:56:55.494Z,2.85
2023-09-23T11:59:24.158Z,2.15
2023-09-23T12:01:51.679Z,4.35
2023-09-23T12:04:19.079Z,3.20
2023-09-23T12:06:46.412Z,2.45
2023-09-23T12:09:13.652Z,2.78
2023-09-23T12:11:40.959Z,3.63
2023-09-23T12:14:08.290Z,3.13
2023-09-23T12:16:36.941Z,4.32
2023-09-23T12:19:04.541Z,2.33
2023-09-23T12:21:32.117Z,3.45
2023-09-23T12:23:59.442Z,3.47
2023-09-23T12:26:26.838Z,3.03
2023-09-23T12:28:54.176Z,2.60
2023-09-23T12:31:21.486Z,2.92
2023-09-23T12:33:50.093Z,3.22
2023-09-23T12:36:17.366Z,2.42
2023-09-23T12:38:44.821Z,4.05
2023-09-23T12:41:12.269Z,5.20
2023-09-23T12:43:39.524Z,3.83
2023-09-23T12:46:06.941Z,4.68
2023-09-23T12:48:34.452Z,1.42
2023-09-23T12:51:03.363Z,4.85
2023-09-23T12:53:30.630Z,3.55
2023-09-23T12:55:57.977Z,3.83
2023-09-23T12:58:25.456Z,3.03
2023-09-23T13:00:52.884Z,6.07
2023-09-23T13:03:20.252Z,2.63
2023-09-23T13:05:47.758Z,3.50
2023-09-23T13:08:16.496Z,2.45
2023-09-23T13:10:43.881Z,4.60
2023-09-23T13:13:11.211Z,3.60
2023-09-23T13:15:38.594Z,3.58
2023-09-23T13:18:06.475Z,2.72
2023-09-23T13:20:33.771Z,4.30
2023-09-23T13:23:01.343Z,2.08
2023-09-23T13:25:32.250Z,2.65
2023-09-23T13:27:59.658Z,4.30
2023-09-23T13:30:27.898Z,3.15
2023-09-23T13:32:55.438Z,2.88
2023-09-23T13:35:23.067Z,6.82
2023-09-23T13:37:50.345Z,4.53
2023-09-23T13:40:17.698Z,2.05
2023-09-23T13:42:46.303Z,2.92
2023-09-23T13:45:13.596Z,5.00
2023-09-23T13:47:41.038Z,3.28
2023-09-23T13:50:08.938Z,1.95
2023-09-23T13:52:36.265Z,3.08
2023-09-23T13:55:04.465Z,5.35
2023-09-23T13:57:31.750Z,3.08
2023-09-23T14:00:00.429Z,3.65
2023-09-23T14:02:28.023Z,5.38
2023-09-23T14:04:55.472Z,3.30
2023-09-23T14:07:22.820Z,4.05
2023-09-23T14:09:50.224Z,4.18
2023-09-23T14:12:17.816Z,4.28
2023-09-23T14:14:45.241Z,4.47
2023-09-23T14:17:14.026Z,5.00
2023-09-23T14:19:41.386Z,3.30
2023-09-23T14:22:08.819Z,5.20
2023-09-23T14:24:36.067Z,7.30
2023-09-23T14:27:03.485Z,5.50
2023-09-23T14:29:30.739Z,3.05
2023-09-23T14:31:58.035Z,2.63
2023-09-23T14:34:26.694Z,6.32
2023-09-23T14:36:54.374Z,2.63
2023-09-23T14:39:21.695Z,2.83
2023-09-23T14:41:48.936Z,2.35
2023-09-23T14:44:16.351Z,4.55
2023-09-23T14:46:43.627Z,5.10
2023-09-23T14:49:10.883Z,6.05
2023-09-23T14:51:39.541Z,3.92
2023-09-23T14:54:07.017Z,3.30
2023-09-23T14:56:34.343Z,5.25
2023-09-23T14:59:01.785Z,2.78
2023-09-23T15:01:31.163Z,4.45
2023-09-23T15:03:58.652Z,3.28
2023-09-23T15:06:26.641Z,4.18
2023-09-23T15:09:00.524Z,3.05
2023-09-23T15:11:29.318Z,2.33
2023-09-23T15:13:57.100Z,5.97
2023-09-23T15:16:24.636Z,3.97
2023-09-23T15:18:51.925Z,3.58
2023-09-23T15:21:19.242Z,4.30
2023-09-23T15:23:46.497Z,3.75
2023-09-23T15:26:15.368Z,5.00
2023-09-23T15:28:42.761Z,10.02
2023-09-23T15:31:10.093Z,10.23
2023-09-23T15:33:37.420Z,10.15
2023-09-23T15:36:05.326Z,6.78
2023-09-23T15:38:33.246Z,3.88
2023-09-23T15:41:00.556Z,5.35
2023-09-23T15:43:29.228Z,5.60
2023-09-23T15:45:59.454Z,4.78
2023-09-23T15:48:26.841Z,3.10
2023-09-23T15:50:54.223Z,7.68
2023-09-23T15:53:21.601Z,7.22
2023-09-23T15:55:50.098Z,7.88
2023-09-23T15:58:17.374Z,8.18
2023-09-23T16:00:46.323Z,6.53
2023-09-23T16:03:13.830Z,5.78
2023-09-23T16:05:41.369Z,3.65
2023-09-23T16:08:08.753Z,7.10
2023-09-23T16:10:36.043Z,11.50
2023-09-23T16:13:03.580Z,5.40
2023-09-23T16:15:32.652Z,5.75
2023-09-23T16:18:01.455Z,16.88
2023-09-23T16:20:28.828Z,43.28
2023-09-23T16:22:56.269Z,30.42
2023-09-23T16:25:23.537Z,14.98
2023-09-23T16:27:50.839Z,8.57
2023-09-23T16:30:18.158Z,9.45
2023-09-23T16:32:45.469Z,7.85
2023-09-23T16:35:14.225Z,44.70
2023-09-23T16:37:41.548Z,13.98
2023-09-23T16:40:09.739Z,29.30
2023-09-23T16:42:37.315Z,76.32
2023-09-23T16:45:05.384Z,45.92
2023-09-23T16:47:33.092Z,55.70
2023-09-23T16:50:00.611Z,91.65
2023-09-23T16:52:29.336Z,33.92
2023-09-23T16:54:56.635Z,23.25
2023-09-23T16:57:23.976Z,20.45
2023-09-23T16:59:51.248Z,11.18
2023-09-23T17:02:18.919Z,8.52
2023-09-23T17:04:46.506Z,15.63
2023-09-23T17:07:14.459Z,6.70
2023-09-23T17:09:43.396Z,4.15
2023-09-23T17:12:10.939Z,5.03
2023-09-23T17:14:38.463Z,4.07
2023-09-23T17:17:05.884Z,6.45
2023-09-23T17:19:33.204Z,3.08
2023-09-23T17:22:00.851Z,5.30
2023-09-23T17:24:28.429Z,4.80
2023-09-23T17:26:57.108Z,5.60
2023-09-23T17:29:24.498Z,5.05
2023-09-23T17:31:51.893Z,4.03
2023-09-23T17:34:19.223Z,5.47
2023-09-23T17:36:46.628Z,3.75
2023-09-23T17:39:13.880Z,5.30
2023-09-23T17:41:41.236Z,3.05
2023-09-23T17:44:09.977Z,6.63
2023-09-23T17:46:37.536Z,8.82
2023-09-23T17:49:04.856Z,3.95
2023-09-23T17:51:32.253Z,6.43
2023-09-23T17:53:59.691Z,4.80
2023-09-23T17:56:27.242Z,6.82
2023-09-23T17:58:54.679Z,5.90
2023-09-23T18:01:23.611Z,6.05
2023-09-23T18:03:51.306Z,7.93
2023-09-23T18:06:18.900Z,4.38
2023-09-23T18:08:46.305Z,4.13
2023-09-23T18:11:13.763Z,4.70
2023-09-23T18:13:41.126Z,7.50
2023-09-23T18:16:08.841Z,5.38
2023-09-23T18:18:37.654Z,7.45
2023-09-23T18:21:05.035Z,7.47
2023-09-23T18:23:32.372Z,5.53
2023-09-23T18:25:59.709Z,5.50
2023-09-23T18:28:27.047Z,3.97
2023-09-23T18:30:54.559Z,5.10
2023-09-23T18:33:21.958Z,8.20
2023-09-23T18:35:50.707Z,5.05
2023-09-23T18:38:17.997Z,8.25
2023-09-23T18:40:45.289Z,5.93
2023-09-23T18:43:12.595Z,16.35
2023-09-23T18:45:42.739Z,3.38
2023-09-23T18:48:23.803Z,5.65
2023-09-23T18:50:55.011Z,6.32
2023-09-23T18:53:22.376Z,7.68
2023-09-23T18:55:49.772Z,6.97
2023-09-23T18:58:17.096Z,6.30
2023-09-23T19:00:44.535Z,5.40
2023-09-23T19:03:12.025Z,6.13
2023-09-23T19:05:39.695Z,6.07
2023-09-23T19:08:08.570Z,9.40
2023-09-23T19:10:35.863Z,7.20
2023-09-23T19:13:03.168Z,5.65
2023-09-23T19:15:30.446Z,3.72
2023-09-23T19:17:57.868Z,5.50
2023-09-23T19:20:25.262Z,4.70
2023-09-23T19:22:52.636Z,9.30
2023-09-23T19:25:21.301Z,6.13
2023-09-23T19:27:48.709Z,10.02
2023-09-23T19:30:16.075Z,8.52
2023-09-23T19:32:43.560Z,5.75
2023-09-23T19:35:11.164Z,5.65
2023-09-23T19:37:38.972Z,8.60
2023-09-23T19:40:07.749Z,7.05
2023-09-23T19:42:36.450Z,8.60
2023-09-23T19:45:04.092Z,11.70
2023-09-23T19:47:31.684Z,11.40
2023-09-23T19:49:59.410Z,8.95
2023-09-23T19:52:27.959Z,9.13
2023-09-23T19:54:55.221Z,7.13
2023-09-23T19:57:22.586Z,8.18
2023-09-23T19:59:51.369Z,5.22
2023-09-23T20:02:18.753Z,5.03
2023-09-23T20:04:46.047Z,5.63
2023-09-23T20:07:13.356Z,5.57
2023-09-23T20:09:40.655Z,5.85
2023-09-23T20:12:07.980Z,7.70
2023-09-23T20:14:35.342Z,6.70
2023-09-23T20:17:05.390Z,9.25
2023-09-23T20:19:33.556Z,7.82
2023-09-23T20:22:00.863Z,7.47
2023-09-23T20:24:28.133Z,7.18
2023-09-23T20:26:55.515Z,7.25
2023-09-23T20:29:23.172Z,7.05
2023-09-23T20:31:50.602Z,8.93
2023-09-23T20:34:19.265Z,9.35
2023-09-23T20:36:46.554Z,8.95
2023-09-23T20:39:13.841Z,11.23
2023-09-23T20:41:41.272Z,13.38
2023-09-23T20:44:08.643Z,7.72
2023-09-23T20:46:36.035Z,10.93
2023-09-23T20:49:03.419Z,10.35
2023-09-23T20:51:32.171Z,13.38
2023-09-23T20:53:59.606Z,14.82
2023-09-23T20:56:26.976Z,9.43
2023-09-23T20:58:54.275Z,10.90
2023-09-23T21:01:21.625Z,6.05
2023-09-23T21:03:49.682Z,7.13
2023-09-23T21:06:17.245Z,8.00
2023-09-23T21:08:46.027Z,7.65
2023-09-23T21:11:13.317Z,7.40
2023-09-23T21:13:40.569Z,7.80
2023-09-23T21:16:07.846Z,8.88
2023-09-23T21:18:35.248Z,12.85
2023-09-23T21:21:02.569Z,18.40
2023-09-23T21:23:29.890Z,14.90
2023-09-23T21:25:58.594Z,17.45
2023-09-23T21:28:25.869Z,10.57
2023-09-23T21:30:53.197Z,14.90
2023-09-23T21:33:20.756Z,12.43
2023-09-23T21:35:48.277Z,15.32
2023-09-23T21:38:15.606Z,9.70
2023-09-23T21:40:42.927Z,11.40
2023-09-23T21:43:11.557Z,9.65
2023-09-23T21:45:39.487Z,15.65
2023-09-23T21:48:07.917Z,12.57
2023-09-23T21:50:35.570Z,13.00
2023-09-23T21:53:03.815Z,12.40
2023-09-23T21:55:31.193Z,7.25
2023-09-23T21:57:58.465Z,9.10
2023-09-23T22:00:27.100Z,13.23
2023-09-23T22:02:56.129Z,10.82
2023-09-23T22:05:23.927Z,10.00
2023-09-23T22:07:53.578Z,11.90
2023-09-23T22:10:20.822Z,19.88
2023-09-23T22:12:48.073Z,19.25
2023-09-23T22:15:15.448Z,17.58
2023-09-23T22:17:44.247Z,17.90
2023-09-23T22:20:12.964Z,13.13
2023-09-23T22:22:40.221Z,10.50
2023-09-23T22:25:08.169Z,18.27
2023-09-23T22:27:35.406Z,16.15
2023-09-23T22:30:02.801Z,17.70
2023-09-23T22:32:30.159Z,9.02
2023-09-23T22:34:58.957Z,13.45
2023-09-23T22:37:27.666Z,24.40
2023-09-23T22:40:02.280Z,65.40
2023-09-23T22:42:30.708Z,85.70
2023-09-23T22:44:58.018Z,48.92
2023-09-23T22:47:25.392Z,58.10
2023-09-23T22:49:52.743Z,49.35
2023-09-23T22:52:21.400Z,18.10
2023-09-23T22:54:48.721Z,14.18
2023-09-23T22:57:15.961Z,45.85
2023-09-23T22:59:43.213Z,49.33
2023-09-23T23:02:10.561Z,13.15
2023-09-23T23:04:37.919Z,25.60
2023-09-23T23:07:05.293Z,33.40
2023-09-23T23:09:33.944Z,39.55
2023-09-23T23:12:01.270Z,27.98
2023-09-23T23:14:28.589Z,26.05
2023-09-23T23:16:56.052Z,21.42
2023-09-23T23:19:23.424Z,26.75
2023-09-23T23:21:50.813Z,26.02
2023-09-23T23:24:18.508Z,27.13
2023-09-23T23:26:47.157Z,45.08
2023-09-23T23:29:14.522Z,63.05
2023-09-23T23:31:41.868Z,121.70
2023-09-23T23:34:09.098Z,37.72
2023-09-23T23:36:36.347Z,39.05
2023-09-23T23:39:03.855Z,16.55
2023-09-23T23:41:31.204Z,17.38
2023-09-23T23:44:00.061Z,11.18
2023-09-23T23:46:27.317Z,22.02
2023-09-23T23:48:54.630Z,36.88
2023-09-23T23:51:21.883Z,54.03
2023-09-23T23:53:49.729Z,17.13
2023-09-23T23:56:17.117Z,13.75
2023-09-23T23:58:44.517Z,22.77
